createdAt,value
2022-09-17T00:00:38.997Z,90451.66
2022-09-17T00:03:05.489Z,90354.75
2022-09-17T00:05:31.960Z,90275.69
2022-09-17T00:07:58.323Z,90195.91
2022-09-17T00:10:24.787Z,90123.00
2022-09-17T00:12:51.434Z,90076.94
2022-09-17T00:15:18.100Z,90006.06
2022-09-17T00:17:44.527Z,89967.56
2022-09-17T00:20:10.967Z,89936.41
2022-09-17T00:22:38.268Z,89908.06
2022-09-17T00:25:05.384Z,89852.91
2022-09-17T00:27:31.775Z,89825.13
2022-09-17T00:29:58.403Z,89813.00
2022-09-17T00:32:24.800Z,89784.50
2022-09-17T00:34:52.197Z,89732.41
2022-09-17T00:37:19.482Z,89691.53
2022-09-17T00:39:45.847Z,89662.72
2022-09-17T00:42:12.874Z,89638.09
2022-09-17T00:44:42.043Z,89612.53
2022-09-17T00:47:15.840Z,89578.91
2022-09-17T00:49:42.235Z,89533.75
2022-09-17T00:52:10.815Z,89521.28
2022-09-17T00:54:38.556Z,89465.19
2022-09-17T00:57:05.041Z,89407.03
2022-09-17T00:59:31.423Z,89385.84
2022-09-17T01:01:58.500Z,89344.72
2022-09-17T01:04:26.001Z,89316.31
2022-09-17T01:07:54.169Z,89284.13
2022-09-17T01:10:31.624Z,89278.88
2022-09-17T01:13:30.148Z,89260.91
2022-09-17T01:16:09.974Z,89230.44
2022-09-17T01:19:04.728Z,89187.09
2022-09-17T01:21:43.176Z,89211.56
2022-09-17T01:24:22.169Z,89184.03
2022-09-17T01:26:48.887Z,89189.16
2022-09-17T01:29:44.331Z,89210.03
2022-09-17T01:32:31.061Z,89211.56
2022-09-17T01:35:00.520Z,89251.72
2022-09-17T01:37:50.132Z,89256.31
2022-09-17T01:40:48.246Z,89246.69
2022-09-17T01:43:33.752Z,89268.75
2022-09-17T01:46:04.703Z,89289.91
2022-09-17T01:48:33.836Z,89296.69
2022-09-17T01:51:07.831Z,89311.53
2022-09-17T01:53:46.108Z,89327.88
2022-09-17T01:56:14.846Z,89311.53
2022-09-17T01:58:44.501Z,89320.03
2022-09-17T02:01:10.937Z,89327.00
2022-09-17T02:03:41.374Z,89335.94
2022-09-17T02:06:12.204Z,89332.47
2022-09-17T02:08:43.115Z,89354.28
2022-09-17T02:11:15.116Z,89345.13
2022-09-17T02:13:45.173Z,89353.44
2022-09-17T02:16:16.880Z,89366.84
2022-09-17T02:18:50.673Z,89375.25
2022-09-17T02:21:26.399Z,89421.41
2022-09-17T02:24:00.352Z,89441.28
2022-09-17T02:26:26.782Z,89479.03
2022-09-17T02:29:02.648Z,89544.13
2022-09-17T02:31:29.250Z,89550.69
2022-09-17T02:33:57.424Z,89594.78
2022-09-17T02:36:25.011Z,89622.50
2022-09-17T02:38:55.428Z,89669.16
2022-09-17T02:41:23.516Z,89694.72
2022-09-17T02:44:04.641Z,89730.16
2022-09-17T02:46:36.499Z,89771.28
2022-09-17T02:49:20.047Z,89806.91
2022-09-17T02:52:11.351Z,89875.16
2022-09-17T02:55:16.674Z,89917.50
2022-09-17T02:58:03.307Z,89983.41
2022-09-17T03:00:29.776Z,90054.41
2022-09-17T03:03:02.029Z,90066.13
2022-09-17T03:05:28.740Z,90111.72
2022-09-17T03:07:56.796Z,90141.72
2022-09-17T03:10:23.439Z,90167.88
2022-09-17T03:12:49.863Z,90204.84
2022-09-17T03:15:16.355Z,90239.19
2022-09-17T03:17:42.742Z,90262.16
2022-09-17T03:20:09.656Z,90309.41
2022-09-17T03:22:36.098Z,90320.22
2022-09-17T03:25:02.483Z,90362.13
2022-09-17T03:27:28.886Z,90383.25
2022-09-17T03:29:55.264Z,90420.69
2022-09-17T03:32:21.646Z,90475.47
2022-09-17T03:34:48.077Z,90512.00
2022-09-17T03:37:14.453Z,90574.69
2022-09-17T03:39:40.844Z,90612.41
2022-09-17T03:42:07.252Z,90667.41
2022-09-17T03:44:33.651Z,90738.75
2022-09-17T03:47:00.023Z,90785.91
2022-09-17T03:49:26.465Z,90841.94
2022-09-17T03:51:52.859Z,90857.09
2022-09-17T03:54:19.283Z,90917.97
2022-09-17T03:56:45.676Z,90959.28
2022-09-17T03:59:12.060Z,91017.16
2022-09-17T04:01:38.805Z,91057.13
2022-09-17T04:04:05.296Z,91105.91
2022-09-17T04:06:31.710Z,91171.06
2022-09-17T04:08:58.078Z,91207.97
2022-09-17T04:11:24.481Z,91257.22
2022-09-17T04:13:50.879Z,91292.81
2022-09-17T04:16:17.402Z,91347.84
2022-09-17T04:18:43.817Z,91393.94
2022-09-17T04:21:10.246Z,91441.56
2022-09-17T04:23:36.616Z,91504.69
2022-09-17T04:26:05.889Z,91556.78
2022-09-17T04:28:32.473Z,91610.50
2022-09-17T04:30:58.953Z,91645.03
2022-09-17T04:33:25.493Z,91706.59
2022-09-17T04:35:52.342Z,91734.38
2022-09-17T04:38:20.545Z,91779.91
2022-09-17T04:40:47.021Z,91815.81
2022-09-17T04:43:13.516Z,91867.91
2022-09-17T04:45:39.897Z,91924.47
2022-09-17T04:48:06.350Z,92000.38
2022-09-17T04:50:32.777Z,92044.63
2022-09-17T04:52:59.167Z,92127.06
2022-09-17T04:55:26.416Z,92183.59
2022-09-17T04:57:53.198Z,92230.72
2022-09-17T05:00:20.326Z,92237.03
2022-09-17T05:02:48.178Z,92278.38
2022-09-17T05:05:14.844Z,92307.09
2022-09-17T05:07:41.569Z,92351.09
2022-09-17T05:10:08.978Z,92374.91
2022-09-17T05:12:35.507Z,92422.28
2022-09-17T05:15:02.201Z,92465.53
2022-09-17T05:17:28.579Z,92504.53
2022-09-17T05:19:54.965Z,92542.69
2022-09-17T05:22:21.732Z,92550.13
2022-09-17T05:24:48.195Z,92591.78
2022-09-17T05:27:14.551Z,92644.38
2022-09-17T05:29:40.938Z,92650.72
2022-09-17T05:32:07.299Z,92691.06
2022-09-17T05:34:33.994Z,92706.75
2022-09-17T05:37:00.389Z,92720.91
2022-09-17T05:39:26.771Z,92724.84
2022-09-17T05:41:53.464Z,92753.91
2022-09-17T05:44:19.995Z,92772.47
2022-09-17T05:46:46.872Z,92801.19
2022-09-17T05:49:15.063Z,92824.97
2022-09-17T05:51:42.222Z,92814.50
2022-09-17T05:54:09.111Z,92806.56
2022-09-17T05:56:35.515Z,92764.22
2022-09-17T05:59:01.946Z,92738.97
2022-09-17T06:01:28.497Z,92709.16
2022-09-17T06:03:55.415Z,92664.22
2022-09-17T06:06:21.895Z,92632.34
2022-09-17T06:08:48.276Z,92638.91
2022-09-17T06:11:14.688Z,92686.69
2022-09-17T06:13:43.453Z,92718.66
2022-09-17T06:16:09.896Z,92765.78
2022-09-17T06:18:36.443Z,92799.44
2022-09-17T06:21:03.796Z,92868.59
2022-09-17T06:23:36.194Z,92832.44
2022-09-17T06:26:03.117Z,92835.97
2022-09-17T06:28:29.658Z,92861.44
2022-09-17T06:31:00.296Z,92903.91
2022-09-17T06:33:26.839Z,93005.47
2022-09-17T06:36:00.932Z,93067.41
2022-09-17T06:38:31.698Z,93150.78
2022-09-17T06:40:58.188Z,93228.09
2022-09-17T06:43:24.724Z,93269.91
2022-09-17T06:46:01.445Z,93294.09
2022-09-17T06:48:28.964Z,93349.88
2022-09-17T06:50:55.722Z,93377.94
2022-09-17T06:53:22.826Z,93458.91
2022-09-17T06:55:49.425Z,93514.88
2022-09-17T06:58:15.880Z,93556.94
2022-09-17T07:00:42.428Z,93600.47
2022-09-17T07:03:08.973Z,93664.72
2022-09-17T07:05:35.373Z,93684.38
2022-09-17T07:08:05.248Z,93731.72
2022-09-17T07:10:31.773Z,93798.91
2022-09-17T07:12:59.125Z,93905.84
2022-09-17T07:15:25.535Z,93932.63
2022-09-17T07:17:51.908Z,93928.13
2022-09-17T07:20:18.433Z,93998.13
2022-09-17T07:22:44.944Z,94064.53
2022-09-17T07:25:11.562Z,94129.91
2022-09-17T07:27:37.979Z,94157.56
2022-09-17T07:30:05.153Z,94166.03
2022-09-17T07:32:31.647Z,94156.56
2022-09-17T07:34:58.047Z,94192.66
2022-09-17T07:37:25.652Z,94197.50
2022-09-17T07:39:52.139Z,94227.34
2022-09-17T07:42:18.560Z,94228.94
2022-09-17T07:44:46.623Z,94221.28
2022-09-17T07:47:12.974Z,94269.31
2022-09-17T07:49:39.531Z,94339.47
2022-09-17T07:52:06.426Z,94457.22
2022-09-17T07:54:37.339Z,94457.47
2022-09-17T07:57:04.091Z,94502.84
2022-09-17T07:59:30.486Z,94587.19
2022-09-17T08:01:56.949Z,94590.47
2022-09-17T08:04:23.430Z,94623.19
2022-09-17T08:06:49.827Z,94750.78
2022-09-17T08:09:16.750Z,94891.75
2022-09-17T08:11:58.572Z,95052.88
2022-09-17T08:14:29.420Z,95196.72
2022-09-17T08:16:56.451Z,95278.00
2022-09-17T08:19:22.813Z,95267.50
2022-09-17T08:21:49.195Z,95208.59
2022-09-17T08:24:15.592Z,95251.06
2022-09-17T08:26:42.042Z,95275.75
2022-09-17T08:29:08.513Z,95283.84
2022-09-17T08:31:35.057Z,95354.56
2022-09-17T08:34:01.505Z,95374.59
2022-09-17T08:36:28.581Z,95413.00
2022-09-17T08:38:55.298Z,95463.00
2022-09-17T08:41:24.883Z,95534.38
2022-09-17T08:44:12.627Z,95625.13
2022-09-17T08:46:49.275Z,95680.97
2022-09-17T08:49:30.899Z,95639.13
2022-09-17T08:52:19.174Z,95835.75
2022-09-17T08:54:55.059Z,95846.41
2022-09-17T08:57:47.955Z,95902.56
2022-09-17T09:00:17.565Z,95938.19
2022-09-17T09:03:03.215Z,96009.13
2022-09-17T09:05:47.527Z,96091.13
2022-09-17T09:08:15.636Z,96148.78
2022-09-17T09:10:46.651Z,96124.44
2022-09-17T09:13:14.680Z,96251.38
2022-09-17T09:15:46.193Z,96242.47
2022-09-17T09:18:22.494Z,96233.44
2022-09-17T09:20:55.425Z,96228.00
2022-09-17T09:23:29.526Z,96242.41
2022-09-17T09:26:04.322Z,96381.09
2022-09-17T09:28:39.564Z,96531.31
2022-09-17T09:31:18.694Z,96542.09
2022-09-17T09:33:47.840Z,96549.03
2022-09-17T09:36:15.600Z,96577.75
2022-09-17T09:38:56.555Z,96664.97
2022-09-17T09:41:26.054Z,96683.56
2022-09-17T09:44:09.154Z,96715.94
2022-09-17T09:46:53.871Z,96731.16
2022-09-17T09:49:38.661Z,96780.25
2022-09-17T09:52:20.342Z,96815.91
2022-09-17T09:54:55.845Z,96773.78
2022-09-17T09:57:35.186Z,96932.66
2022-09-17T10:00:26.835Z,97041.34
2022-09-17T10:02:55.600Z,97237.28
2022-09-17T10:05:22.022Z,97274.69
2022-09-17T10:07:48.383Z,97295.81
2022-09-17T10:10:14.779Z,97350.13
2022-09-17T10:12:41.159Z,97346.19
2022-09-17T10:15:28.222Z,97366.44
2022-09-17T10:18:26.013Z,97592.78
2022-09-17T10:20:59.776Z,97652.41
2022-09-17T10:23:28.071Z,97658.81
2022-09-17T10:25:55.731Z,97762.31
2022-09-17T10:28:34.062Z,97853.16
2022-09-17T10:31:08.881Z,97793.56
2022-09-17T10:33:36.899Z,97774.28
2022-09-17T10:36:06.291Z,97806.38
2022-09-17T10:38:43.459Z,97908.56
2022-09-17T10:41:13.351Z,97911.53
2022-09-17T10:43:39.999Z,97951.09
2022-09-17T10:46:06.403Z,97914.16
2022-09-17T10:48:34.277Z,97959.19
2022-09-17T10:51:03.032Z,97978.03
2022-09-17T10:53:29.455Z,97789.81
2022-09-17T10:56:02.748Z,97576.13
2022-09-17T10:59:01.526Z,97541.31
2022-09-17T11:01:32.777Z,97539.50
2022-09-17T11:04:43.763Z,97776.31
2022-09-17T11:07:16.723Z,98002.94
2022-09-17T11:10:04.514Z,98006.09
2022-09-17T11:12:30.907Z,98072.91
2022-09-17T11:15:00.285Z,98165.25
2022-09-17T11:17:46.786Z,99144.47
2022-09-17T11:20:45.973Z,99704.97
2022-09-17T11:23:31.745Z,99803.25
2022-09-17T11:26:08.333Z,99868.53
2022-09-17T11:29:00.203Z,99917.13
2022-09-17T11:31:55.115Z,99959.13
2022-09-17T11:34:41.838Z,99930.16
2022-09-17T11:37:23.612Z,99941.59
2022-09-17T11:39:55.036Z,99922.47
2022-09-17T11:42:25.801Z,99887.28
2022-09-17T11:44:58.320Z,99728.78
2022-09-17T11:47:34.101Z,99509.00
2022-09-17T11:50:09.318Z,98294.50
2022-09-17T11:52:37.965Z,97140.19
2022-09-17T11:55:22.015Z,96854.28
2022-09-17T11:57:49.496Z,96551.63
2022-09-17T12:00:17.872Z,96605.09
2022-09-17T12:03:18.256Z,96614.84
2022-09-17T12:05:55.980Z,96388.97
2022-09-17T12:08:43.460Z,95705.75
2022-09-17T12:11:21.282Z,95071.84
2022-09-17T12:13:52.852Z,94602.31
2022-09-17T12:16:36.633Z,94283.63
2022-09-17T12:19:12.047Z,94130.53
2022-09-17T12:21:49.560Z,93943.31
2022-09-17T12:24:25.664Z,93913.53
2022-09-17T12:27:07.502Z,93920.25
2022-09-17T12:29:45.831Z,93939.25
2022-09-17T12:32:29.974Z,93893.66
2022-09-17T12:35:06.948Z,93906.97
2022-09-17T12:37:49.226Z,93976.75
2022-09-17T12:40:21.155Z,93961.50
2022-09-17T12:43:02.914Z,93896.06
2022-09-17T12:46:14.466Z,93870.47
2022-09-17T12:49:12.878Z,93841.81
2022-09-17T12:52:02.075Z,93751.91
2022-09-17T12:54:57.638Z,93682.59
2022-09-17T12:57:30.144Z,93646.34
2022-09-17T13:00:10.201Z,93658.44
2022-09-17T13:02:41.285Z,93630.94
2022-09-17T13:05:42.920Z,93552.88
2022-09-17T13:08:40.087Z,93505.72
2022-09-17T13:11:11.703Z,93479.88
2022-09-17T13:13:50.411Z,93513.03
2022-09-17T13:16:29.255Z,93580.69
2022-09-17T13:19:20.706Z,93555.72
2022-09-17T13:21:55.676Z,93639.63
2022-09-17T13:24:25.100Z,93678.63
2022-09-17T13:26:54.608Z,93708.31
2022-09-17T13:29:48.934Z,93686.19
2022-09-17T13:32:36.799Z,93665.50
2022-09-17T13:35:12.189Z,93646.00
2022-09-17T13:37:58.989Z,93633.97
2022-09-17T13:40:29.431Z,93628.03
2022-09-17T13:42:59.386Z,93612.63
2022-09-17T13:45:25.959Z,93594.41
2022-09-17T13:48:03.071Z,93531.53
2022-09-17T13:50:35.618Z,93460.81
2022-09-17T13:53:17.093Z,93381.75
2022-09-17T13:55:43.512Z,93331.25
2022-09-17T13:58:22.054Z,93300.81
2022-09-17T14:01:11.839Z,93608.72
2022-09-17T14:03:41.899Z,93532.66
2022-09-17T14:06:08.581Z,93475.91
2022-09-17T14:08:43.713Z,93383.03
2022-09-17T14:11:22.317Z,93290.16
2022-09-17T14:14:11.731Z,93239.47
2022-09-17T14:16:45.960Z,93230.34
2022-09-17T14:19:15.429Z,93184.63
2022-09-17T14:22:03.366Z,93167.09
2022-09-17T14:24:46.806Z,93172.06
2022-09-17T14:27:22.422Z,93164.22
2022-09-17T14:30:04.266Z,93137.50
2022-09-17T14:32:42.830Z,93099.44
2022-09-17T14:35:20.307Z,93094.03
2022-09-17T14:37:50.320Z,93076.75
2022-09-17T14:40:18.614Z,93044.50
2022-09-17T14:42:45.063Z,93031.97
2022-09-17T14:45:16.375Z,93000.81
2022-09-17T14:47:42.762Z,92954.75
2022-09-17T14:50:22.256Z,92970.13
2022-09-17T14:52:49.975Z,92976.94
2022-09-17T14:55:24.087Z,92988.88
2022-09-17T14:57:55.038Z,93015.03
2022-09-17T15:00:26.049Z,93006.97
2022-09-17T15:02:55.571Z,93036.06
2022-09-17T15:05:28.054Z,93046.09
2022-09-17T15:08:09.817Z,93027.78
2022-09-17T15:10:44.787Z,93028.09
2022-09-17T15:13:16.037Z,92984.09
2022-09-17T15:15:51.706Z,92953.50
2022-09-17T15:18:18.157Z,92946.22
2022-09-17T15:20:45.942Z,92945.78
2022-09-17T15:23:14.974Z,92948.03
2022-09-17T15:25:41.395Z,92957.38
2022-09-17T15:28:38.447Z,92952.94
2022-09-17T15:31:06.002Z,92958.50
2022-09-17T15:33:32.810Z,92950.31
2022-09-17T15:36:15.388Z,92926.78
2022-09-17T15:38:42.776Z,92899.16
2022-09-17T15:41:15.647Z,92909.72
2022-09-17T15:43:44.489Z,92895.13
2022-09-17T15:46:28.802Z,92873.97
2022-09-17T15:48:59.907Z,92858.41
2022-09-17T15:51:34.264Z,92845.13
2022-09-17T15:54:05.421Z,92795.63
2022-09-17T15:56:33.428Z,92776.31
2022-09-17T15:59:00.840Z,92753.38
2022-09-17T16:01:31.020Z,92729.97
2022-09-17T16:04:06.226Z,92632.50
2022-09-17T16:06:33.263Z,89033.63
2022-09-17T16:09:03.674Z,87018.44
2022-09-17T16:11:31.137Z,86501.84
2022-09-17T16:13:59.176Z,86327.22
2022-09-17T16:16:35.242Z,86317.19
2022-09-17T16:19:01.927Z,86337.38
2022-09-17T16:21:29.043Z,86414.28
2022-09-17T16:23:55.482Z,86439.56
2022-09-17T16:26:23.403Z,86536.22
2022-09-17T16:28:55.794Z,86577.56
2022-09-17T16:31:22.234Z,86628.28
2022-09-17T16:33:48.645Z,86669.31
2022-09-17T16:36:18.123Z,86746.13
2022-09-17T16:38:44.552Z,86805.06
2022-09-17T16:41:11.104Z,86899.78
2022-09-17T16:43:38.325Z,86952.03
2022-09-17T16:46:06.792Z,86997.53
2022-09-17T16:48:33.450Z,87054.97
2022-09-17T16:51:01.510Z,87157.19
2022-09-17T16:53:27.955Z,87266.91
2022-09-17T16:55:54.368Z,87361.69
2022-09-17T16:58:20.800Z,87437.09
2022-09-17T17:00:47.296Z,87521.09
2022-09-17T17:03:14.773Z,87594.66
2022-09-17T17:05:41.240Z,87653.69
2022-09-17T17:08:08.784Z,87750.69
2022-09-17T17:10:35.400Z,87828.69
2022-09-17T17:13:01.794Z,87879.13
2022-09-17T17:15:28.186Z,87916.53
2022-09-17T17:17:54.580Z,87987.44
2022-09-17T17:20:20.965Z,88058.34
2022-09-17T17:22:47.464Z,88116.53
2022-09-17T17:25:14.219Z,88159.88
2022-09-17T17:27:40.799Z,88209.84
2022-09-17T17:30:08.474Z,88249.53
2022-09-17T17:32:35.788Z,88302.16
2022-09-17T17:35:02.534Z,88352.53
2022-09-17T17:37:29.036Z,88419.66
2022-09-17T17:39:55.507Z,88460.75
2022-09-17T17:42:21.941Z,88509.63
2022-09-17T17:44:48.414Z,88535.50
2022-09-17T17:47:14.845Z,88575.22
2022-09-17T17:49:41.204Z,88637.69
2022-09-17T17:52:07.555Z,88676.47
2022-09-17T17:54:33.988Z,88702.63
2022-09-17T17:57:00.394Z,88732.47
2022-09-17T17:59:26.810Z,88758.59
2022-09-17T18:01:53.255Z,88798.88
2022-09-17T18:04:19.760Z,88809.31
2022-09-17T18:06:48.049Z,88823.69
2022-09-17T18:09:14.710Z,88860.53
2022-09-17T18:11:41.116Z,88914.09
2022-09-17T18:14:09.378Z,88945.69
2022-09-17T18:16:35.854Z,88967.22
2022-09-17T18:19:02.662Z,88990.97
2022-09-17T18:21:29.059Z,89000.34
2022-09-17T18:23:55.459Z,89024.50
2022-09-17T18:26:23.379Z,89028.00
2022-09-17T18:28:50.172Z,89040.28
2022-09-17T18:31:30.207Z,89061.97
2022-09-17T18:34:12.628Z,89060.66
2022-09-17T18:36:39.615Z,89080.81
2022-09-17T18:39:33.153Z,89086.16
2022-09-17T18:41:54.360Z,89104.00
2022-09-17T18:44:21.845Z,89148.94
2022-09-17T18:46:49.894Z,89150.16
2022-09-17T18:49:16.366Z,89156.94
2022-09-17T18:51:42.732Z,89172.16
2022-09-17T18:54:10.533Z,89185.53
2022-09-17T18:56:37.223Z,89207.63
2022-09-17T18:59:07.943Z,89214.41
2022-09-17T19:01:34.989Z,89253.03
2022-09-17T19:04:01.687Z,89279.03
2022-09-17T19:06:28.431Z,89282.72
2022-09-17T19:09:00.927Z,89310.41
2022-09-17T19:11:27.494Z,89324.53
2022-09-17T19:13:54.091Z,89357.63
2022-09-17T19:16:20.547Z,89370.94
2022-09-17T19:18:47.034Z,89391.84
2022-09-17T19:21:14.996Z,89396.31
2022-09-17T19:23:48.407Z,89414.16
2022-09-17T19:26:19.443Z,89410.59
2022-09-17T19:28:45.837Z,89424.72
2022-09-17T19:31:14.019Z,89411.47
2022-09-17T19:33:40.542Z,89415.63
2022-09-17T19:36:08.620Z,89445.00
2022-09-17T19:38:35.006Z,89470.84
2022-09-17T19:41:04.104Z,89464.38
2022-09-17T19:43:30.660Z,89472.22
2022-09-17T19:46:21.163Z,89493.56
2022-09-17T19:48:55.045Z,89289.50
2022-09-17T19:51:22.910Z,89024.06
2022-09-17T19:53:49.431Z,88812.00
2022-09-17T19:56:17.410Z,88777.78
2022-09-17T19:58:43.835Z,88787.38
2022-09-17T20:01:10.665Z,88788.91
2022-09-17T20:03:40.807Z,88816.13
2022-09-17T20:06:08.567Z,88836.59
2022-09-17T20:08:40.842Z,88858.34
2022-09-17T20:11:08.971Z,88856.84
2022-09-17T20:13:35.502Z,88844.09
2022-09-17T20:16:06.191Z,88882.31
2022-09-17T20:18:32.747Z,88925.97
2022-09-17T20:20:59.115Z,88948.75
2022-09-17T20:23:30.660Z,88991.97
2022-09-17T20:25:57.064Z,89019.06
2022-09-17T20:28:23.533Z,89029.31
2022-09-17T20:30:49.994Z,89053.28
2022-09-17T20:33:18.932Z,89061.53
2022-09-17T20:35:47.441Z,89092.03
2022-09-17T20:41:04.180Z,89123.84
2022-09-17T20:43:38.026Z,89147.34
2022-09-17T20:46:05.119Z,89143.66
2022-09-17T20:48:31.837Z,89161.47
2022-09-17T20:51:03.214Z,89188.28
2022-09-17T20:53:30.385Z,89205.47
2022-09-17T20:56:00.784Z,89230.53
2022-09-17T20:58:30.913Z,89245.88
2022-09-17T21:01:13.532Z,89242.31
2022-09-17T21:03:40.921Z,89266.16
2022-09-17T21:06:07.465Z,89302.59
2022-09-17T21:08:33.846Z,89322.00
2022-09-17T21:11:04.413Z,89326.59
2022-09-17T21:13:30.782Z,89345.50
2022-09-17T21:15:58.214Z,89354.88
2022-09-17T21:18:25.028Z,89375.34
2022-09-17T21:20:51.504Z,89409.50
2022-09-17T21:23:25.612Z,89445.00
2022-09-17T21:25:52.085Z,89456.97
2022-09-17T21:28:21.814Z,89503.75
2022-09-17T21:30:48.284Z,89505.41
2022-09-17T21:33:21.922Z,89538.16
2022-09-17T21:35:51.344Z,89559.22
2022-09-17T21:38:20.155Z,89615.38
2022-09-17T21:40:59.931Z,89637.81
2022-09-17T21:43:26.587Z,89643.94
2022-09-17T21:46:04.413Z,89681.13
2022-09-17T21:48:31.231Z,89699.72
2022-09-17T21:51:08.669Z,89722.03
2022-09-17T21:53:35.112Z,89758.28
2022-09-17T21:56:11.744Z,89790.84
2022-09-17T21:58:38.431Z,89814.84
2022-09-17T22:01:09.613Z,89850.47
2022-09-17T22:03:36.074Z,89913.56
2022-09-17T22:06:06.689Z,89917.81
2022-09-17T22:08:33.400Z,89952.81
2022-09-17T22:11:10.345Z,89995.22
2022-09-17T22:13:37.100Z,90060.63
2022-09-17T22:16:04.935Z,90106.84
2022-09-17T22:18:32.193Z,90143.44
2022-09-17T22:20:59.120Z,90199.19
2022-09-17T22:23:26.353Z,90256.13
2022-09-17T22:26:05.460Z,90297.81
2022-09-17T22:28:31.906Z,90356.06
2022-09-17T22:31:01.384Z,90451.06
2022-09-17T22:33:31.725Z,90501.75
2022-09-17T22:36:02.822Z,90582.44
2022-09-17T22:38:29.273Z,90634.88
2022-09-17T22:40:55.659Z,90707.00
2022-09-17T22:43:22.088Z,90793.28
2022-09-17T22:45:48.458Z,90852.28
2022-09-17T22:48:14.840Z,90946.38
2022-09-17T22:50:41.203Z,90985.03
2022-09-17T22:53:07.591Z,91034.97
2022-09-17T22:55:35.457Z,91073.88
2022-09-17T22:58:01.848Z,91109.41
2022-09-17T23:00:28.392Z,91172.16
2022-09-17T23:02:54.914Z,91153.84
2022-09-17T23:05:21.332Z,91170.53
2022-09-17T23:07:47.764Z,91205.56
2022-09-17T23:10:14.146Z,91183.59
2022-09-17T23:12:40.513Z,91201.09
2022-09-17T23:15:07.414Z,91229.03
2022-09-17T23:17:36.621Z,91256.69
2022-09-17T23:20:03.745Z,91283.59
2022-09-17T23:22:30.177Z,91325.38
2022-09-17T23:24:56.550Z,91343.91
2022-09-17T23:27:22.936Z,91347.06
2022-09-17T23:29:49.311Z,91356.47
2022-09-17T23:32:15.682Z,91364.03
2022-09-17T23:34:42.085Z,91360.13
2022-09-17T23:37:08.467Z,91366.38
2022-09-17T23:39:34.845Z,91343.91
2022-09-17T23:42:01.230Z,91339.75
2022-09-17T23:44:27.672Z,91367.97
2022-09-17T23:46:54.137Z,91348.63
2022-09-17T23:49:20.525Z,91355.41
2022-09-17T23:51:46.922Z,91362.19
2022-09-17T23:54:13.349Z,91339.22
2022-09-17T23:56:39.848Z,91352.28
2022-09-17T23:59:07.323Z,91347.56
